TimeCDT,TemperatureF,Dew PointF,Humidity,Sea Level PressureIn,VisibilityMPH,Wind Direction,Wind SpeedMPH,Gust SpeedMPH,PrecipitationIn,Events,Conditions,WindDirDegrees,DateUTC
12:08 AM,75.9,49.1,39,-9999,-9999.0,SSE,9.2,-,N/A,,Unknown,150,2013-06-13 05:08:00
12:28 AM,73.9,49.1,41,-9999,-9999.0,SE,9.2,-,N/A,,Unknown,130,2013-06-13 05:28:00
12:48 AM,73.9,50.2,43,-9999,-9999.0,SE,8.1,-,N/A,,Unknown,140,2013-06-13 05:48:00
1:08 AM,72.0,50.2,46,-9999,-9999.0,SSE,9.2,-,N/A,,Unknown,150,2013-06-13 06:08:00
1:28 AM,72.0,51.1,48,-9999,-9999.0,SSE,9.2,-,N/A,,Unknown,150,2013-06-13 06:28:00
1:48 AM,72.0,52.2,50,-9999,-9999.0,SSE,9.2,-,N/A,,Unknown,160,2013-06-13 06:48:00
2:08 AM,73.0,53.1,49,-9999,-9999.0,South,9.2,-,N/A,,Unknown,170,2013-06-13 07:08:00
2:28 AM,71.1,53.1,53,-9999,-9999.0,South,8.1,-,N/A,,Unknown,170,2013-06-13 07:28:00
2:48 AM,71.1,52.2,51,-9999,-9999.0,South,9.2,-,N/A,,Unknown,180,2013-06-13 07:48:00
3:08 AM,71.1,53.1,53,-9999,-9999.0,South,9.2,-,N/A,,Unknown,180,2013-06-13 08:08:00
3:28 AM,71.1,53.1,53,-9999,-9999.0,South,9.2,-,N/A,,Unknown,180,2013-06-13 08:28:00
3:48 AM,71.1,53.1,53,-9999,-9999.0,South,9.2,-,N/A,,Unknown,190,2013-06-13 08:48:00
4:08 AM,72.0,52.2,50,-9999,-9999.0,South,9.2,-,N/A,,Unknown,190,2013-06-13 09:08:00
4:28 AM,71.1,52.2,51,-9999,-9999.0,South,9.2,-,N/A,,Unknown,190,2013-06-13 09:28:00
4:48 AM,71.1,51.1,49,-9999,-9999.0,SSW,8.1,-,N/A,,Unknown,200,2013-06-13 09:48:00
5:08 AM,72.0,52.2,50,-9999,-9999.0,SW,8.1,-,N/A,,Unknown,220,2013-06-13 10:08:00
5:28 AM,72.0,52.2,50,-9999,-9999.0,SW,8.1,-,N/A,,Unknown,220,2013-06-13 10:28:00
5:48 AM,72.0,51.1,48,-9999,-9999.0,SSW,9.2,-,N/A,,Unknown,210,2013-06-13 10:48:00
6:08 AM,72.0,51.1,48,-9999,-9999.0,SSW,9.2,-,N/A,,Unknown,200,2013-06-13 11:08:00
6:28 AM,69.1,51.1,53,-9999,-9999.0,SSW,8.1,-,N/A,,Unknown,210,2013-06-13 11:28:00
6:48 AM,71.1,53.1,53,-9999,-9999.0,South,6.9,-,N/A,,Unknown,190,2013-06-13 11:48:00
7:08 AM,68.0,52.2,57,-9999,-9999.0,ENE,11.5,-,N/A,,Unknown,70,2013-06-13 12:08:00
7:28 AM,72.0,53.1,51,-9999,-9999.0,ENE,10.4,-,N/A,,Unknown,70,2013-06-13 12:28:00
7:48 AM,72.0,56.1,57,-9999,-9999.0,SE,8.1,-,N/A,,Unknown,130,2013-06-13 12:48:00
8:08 AM,73.9,56.1,54,-9999,-9999.0,East,11.5,-,N/A,,Unknown,100,2013-06-13 13:08:00
8:28 AM,73.0,57.0,57,-9999,-9999.0,ESE,12.7,-,N/A,,Unknown,120,2013-06-13 13:28:00
8:48 AM,73.9,57.0,55,-9999,-9999.0,ESE,13.8,-,N/A,,Unknown,110,2013-06-13 13:48:00
9:08 AM,75.9,57.0,52,-9999,-9999.0,SE,11.5,-,N/A,,Unknown,130,2013-06-13 14:08:00
9:28 AM,77.0,57.0,50,-9999,-9999.0,SE,13.8,-,N/A,,Unknown,140,2013-06-13 14:28:00
9:48 AM,78.1,58.1,50,-9999,-9999.0,ESE,13.8,-,N/A,,Unknown,120,2013-06-13 14:48:00
10:08 AM,80.1,58.1,47,-9999,-9999.0,SE,16.1,-,N/A,,Unknown,130,2013-06-13 15:08:00
10:28 AM,82.0,59.2,46,-9999,-9999.0,SE,12.7,-,N/A,,Unknown,140,2013-06-13 15:28:00
10:48 AM,84.9,59.2,42,-9999,-9999.0,ESE,15.0,-,N/A,,Unknown,120,2013-06-13 15:48:00
11:08 AM,87.1,58.1,37,-9999,-9999.0,SE,13.8,-,N/A,,Unknown,130,2013-06-13 16:08:00
11:28 AM,89.1,59.2,36,-9999,-9999.0,SE,13.8,-,N/A,,Unknown,140,2013-06-13 16:28:00
11:48 AM,91.0,60.1,35,-9999,-9999.0,SE,12.7,-,N/A,,Unknown,130,2013-06-13 16:48:00
12:08 PM,93.0,59.2,32,-9999,-9999.0,SE,17.3,-,N/A,,Unknown,140,2013-06-13 17:08:00
12:28 PM,93.9,55.0,27,-9999,-9999.0,SSE,19.6,-,N/A,,Unknown,150,2013-06-13 17:28:00
12:48 PM,95.0,54.1,25,-9999,-9999.0,SSE,18.4,-,N/A,,Unknown,150,2013-06-13 17:48:00
1:08 PM,95.0,53.1,24,-9999,-9999.0,SSW,16.1,-,N/A,,Unknown,200,2013-06-13 18:08:00
1:28 PM,95.0,51.1,22,-9999,-9999.0,SSW,13.8,-,N/A,,Unknown,200,2013-06-13 18:28:00
1:48 PM,96.1,52.2,23,-9999,-9999.0,SSE,13.8,-,N/A,,Unknown,160,2013-06-13 18:48:00
2:08 PM,96.1,50.2,21,-9999,-9999.0,SSW,17.3,-,N/A,,Unknown,200,2013-06-13 19:08:00
2:28 PM,97.0,51.1,21,-9999,-9999.0,South,19.6,-,N/A,,Unknown,170,2013-06-13 19:28:00
2:48 PM,97.0,51.1,21,-9999,-9999.0,South,19.6,-,N/A,,Unknown,190,2013-06-13 19:48:00
3:08 PM,97.0,51.1,21,-9999,-9999.0,SSE,21.9,-,N/A,,Unknown,160,2013-06-13 20:08:00
3:28 PM,98.1,50.2,20,-9999,-9999.0,SSE,19.6,-,N/A,,Unknown,160,2013-06-13 20:28:00
3:48 PM,97.0,48.0,19,-9999,-9999.0,South,19.6,-,N/A,,Unknown,170,2013-06-13 20:48:00
4:08 PM,98.1,50.2,20,-9999,-9999.0,SSE,17.3,-,N/A,,Unknown,150,2013-06-13 21:08:00
4:28 PM,-9999,-9999,N/A,-9999,-9999.0,North,-9999.0,-,N/A,,Unknown,0,2013-06-13 21:28:00
4:48 PM,98.1,50.2,20,-9999,-9999.0,South,17.3,-,N/A,,Unknown,170,2013-06-13 21:48:00
5:08 PM,98.1,51.1,20,-9999,-9999.0,SE,18.4,-,N/A,,Unknown,140,2013-06-13 22:08:00
5:28 PM,97.0,52.2,22,-9999,-9999.0,SSE,17.3,-,N/A,,Unknown,160,2013-06-13 22:28:00
5:48 PM,97.0,51.1,21,-9999,-9999.0,South,20.7,-,N/A,,Unknown,170,2013-06-13 22:48:00
6:08 PM,97.0,52.2,22,-9999,-9999.0,SSE,20.7,-,N/A,,Unknown,150,2013-06-13 23:08:00
6:28 PM,96.1,53.1,23,-9999,-9999.0,South,21.9,-,N/A,,Unknown,170,2013-06-13 23:28:00
6:48 PM,96.1,52.2,23,-9999,-9999.0,SSE,18.4,-,N/A,,Unknown,160,2013-06-13 23:48:00
7:08 PM,95.0,52.2,23,-9999,-9999.0,SSE,18.4,-,N/A,,Unknown,160,2013-06-14 00:08:00
7:28 PM,95.0,51.1,22,-9999,-9999.0,South,16.1,-,N/A,,Unknown,170,2013-06-14 00:28:00
7:48 PM,93.9,51.1,23,-9999,-9999.0,South,17.3,-,N/A,,Unknown,170,2013-06-14 00:48:00
8:08 PM,91.0,51.1,25,-9999,-9999.0,SSE,17.3,-,N/A,,Unknown,160,2013-06-14 01:08:00
8:28 PM,89.1,51.1,27,-9999,-9999.0,SSE,12.7,-,N/A,,Unknown,160,2013-06-14 01:28:00
8:48 PM,87.1,52.2,30,-9999,-9999.0,SSE,10.4,-,N/A,,Unknown,160,2013-06-14 01:48:00
9:08 PM,86.0,51.1,30,-9999,-9999.0,South,11.5,-,N/A,,Unknown,170,2013-06-14 02:08:00
9:28 PM,84.0,52.2,33,-9999,-9999.0,SSE,9.2,-,N/A,,Unknown,160,2013-06-14 02:28:00
9:48 PM,82.0,52.2,35,-9999,-9999.0,SSE,8.1,-,N/A,,Unknown,160,2013-06-14 02:48:00
10:08 PM,80.1,52.2,38,-9999,-9999.0,SSE,11.5,-,N/A,,Unknown,160,2013-06-14 03:08:00
10:28 PM,81.0,54.1,39,-9999,-9999.0,SSE,12.7,-,N/A,,Unknown,160,2013-06-14 03:28:00
10:48 PM,81.0,54.1,39,-9999,-9999.0,SSE,16.1,-,N/A,,Unknown,160,2013-06-14 03:48:00
11:08 PM,81.0,53.1,38,-9999,-9999.0,SSE,15.0,-,N/A,,Unknown,160,2013-06-14 04:08:00
11:28 PM,81.0,54.1,39,-9999,-9999.0,South,16.1,-,N/A,,Unknown,170,2013-06-14 04:28:00
11:48 PM,80.1,54.1,41,-9999,-9999.0,SSE,16.1,-,N/A,,Unknown,160,2013-06-14 04:48:00